createdAt,value
2018-11-21T00:01:32.100Z,18.20
2018-11-21T00:04:00.409Z,19.30
2018-11-21T00:06:28.732Z,17.80
2018-11-21T00:08:57.049Z,17.10
2018-11-21T00:11:25.340Z,18.47
2018-11-21T00:13:53.618Z,19.10
2018-11-21T00:16:21.919Z,19.37
2018-11-21T00:18:50.199Z,19.47
2018-11-21T00:21:18.468Z,18.50
2018-11-21T00:23:46.789Z,18.63
2018-11-21T00:26:15.110Z,21.13
2018-11-21T00:28:43.355Z,21.93
2018-11-21T00:31:11.579Z,18.70
2018-11-21T00:33:39.849Z,20.80
2018-11-21T00:36:08.141Z,19.37
2018-11-21T00:38:36.431Z,19.30
2018-11-21T00:41:04.797Z,20.57
2018-11-21T00:43:33.080Z,18.50
2018-11-21T00:46:01.436Z,17.00
2018-11-21T00:48:29.772Z,18.10
2018-11-21T00:50:57.959Z,18.87
2018-11-21T00:53:26.244Z,17.60
2018-11-21T00:55:54.501Z,19.57
2018-11-21T00:58:22.834Z,24.97
2018-11-21T01:00:51.078Z,22.37
2018-11-21T01:03:19.419Z,20.07
2018-11-21T01:05:47.773Z,19.10
2018-11-21T01:08:16.230Z,22.70
2018-11-21T01:10:44.453Z,20.60
2018-11-21T01:13:12.830Z,20.13
2018-11-21T01:15:41.074Z,20.87
2018-11-21T01:18:09.409Z,21.30
2018-11-21T01:20:37.635Z,21.03
2018-11-21T01:23:05.898Z,23.57
2018-11-21T01:25:34.204Z,21.33
2018-11-21T01:28:02.453Z,21.07
2018-11-21T01:30:30.883Z,19.47
2018-11-21T01:32:59.112Z,19.30
2018-11-21T01:35:27.490Z,19.37
2018-11-21T01:37:55.818Z,22.27
2018-11-21T01:40:24.161Z,18.13
2018-11-21T01:42:52.541Z,22.27
2018-11-21T01:45:20.801Z,20.93
2018-11-21T01:47:49.085Z,18.70
2018-11-21T01:50:17.401Z,19.73
2018-11-21T01:52:45.676Z,19.53
2018-11-21T01:55:13.958Z,20.17
2018-11-21T01:57:42.207Z,20.77
2018-11-21T02:00:11.921Z,20.50
2018-11-21T02:02:40.299Z,21.80
2018-11-21T02:05:08.652Z,21.70
2018-11-21T02:07:36.923Z,20.87
2018-11-21T02:10:06.401Z,21.23
2018-11-21T02:12:34.705Z,22.67
2018-11-21T02:15:03.058Z,22.23
2018-11-21T02:17:31.376Z,21.53
2018-11-21T02:19:59.613Z,19.37
2018-11-21T02:22:28.059Z,19.00
2018-11-21T02:24:56.357Z,22.70
2018-11-21T02:27:24.776Z,23.70
2018-11-21T02:29:53.037Z,22.37
2018-11-21T02:32:21.419Z,20.90
2018-11-21T02:34:49.836Z,21.73
2018-11-21T02:37:18.101Z,22.63
2018-11-21T02:39:46.431Z,21.27
2018-11-21T02:42:14.686Z,19.63
2018-11-21T02:44:42.943Z,19.33
2018-11-21T02:47:11.293Z,20.97
2018-11-21T02:49:39.709Z,19.70
2018-11-21T02:52:07.969Z,20.73
2018-11-21T02:54:36.245Z,18.83
2018-11-21T02:57:24.234Z,20.07
2018-11-21T02:59:54.990Z,19.80
2018-11-21T03:02:23.321Z,19.97
2018-11-21T03:04:51.629Z,20.47
2018-11-21T03:07:19.959Z,37.40
2018-11-21T03:09:48.242Z,29.67
2018-11-21T03:12:16.523Z,29.43
2018-11-21T03:14:44.868Z,27.60
2018-11-21T03:17:13.253Z,29.20
2018-11-21T03:19:41.534Z,30.17
2018-11-21T03:22:09.904Z,23.10
2018-11-21T03:24:38.176Z,21.00
2018-11-21T03:27:06.599Z,20.40
2018-11-21T03:29:34.857Z,18.53
2018-11-21T03:32:03.177Z,21.40
2018-11-21T03:34:31.423Z,21.20
2018-11-21T03:36:59.685Z,23.43
2018-11-21T03:39:28.006Z,26.17
2018-11-21T03:41:56.243Z,24.83
2018-11-21T03:44:24.601Z,24.90
2018-11-21T03:46:52.895Z,24.17
2018-11-21T03:49:21.202Z,23.87
2018-11-21T03:51:49.488Z,24.60
2018-11-21T03:54:17.794Z,21.80
2018-11-21T03:56:46.105Z,21.23
2018-11-21T03:59:14.371Z,19.90
2018-11-21T04:01:42.622Z,21.83
2018-11-21T04:04:11.033Z,22.20
2018-11-21T04:06:39.285Z,21.03
2018-11-21T04:09:09.696Z,21.00
2018-11-21T04:11:37.955Z,24.60
2018-11-21T04:14:06.416Z,23.43
2018-11-21T04:16:34.763Z,21.57
2018-11-21T04:19:03.135Z,20.53
2018-11-21T04:21:31.497Z,19.50
2018-11-21T04:23:59.723Z,21.23
2018-11-21T04:26:28.064Z,20.23
2018-11-21T04:28:56.369Z,20.30
2018-11-21T04:31:24.655Z,22.10
2018-11-21T04:33:53.060Z,21.17
2018-11-21T04:36:21.422Z,19.83
2018-11-21T04:38:49.707Z,20.40
2018-11-21T04:41:18.095Z,22.07
2018-11-21T04:43:46.388Z,20.10
2018-11-21T04:46:14.832Z,19.67
2018-11-21T04:48:43.075Z,22.53
2018-11-21T04:51:11.369Z,19.57
2018-11-21T04:53:39.656Z,21.77
2018-11-21T04:56:07.977Z,22.00
2018-11-21T04:58:36.192Z,20.33
2018-11-21T05:01:04.834Z,21.00
2018-11-21T05:03:33.135Z,19.43
2018-11-21T05:06:01.468Z,20.80
2018-11-21T05:08:29.757Z,20.40
2018-11-21T05:10:58.094Z,19.10
2018-11-21T05:13:26.458Z,21.63
2018-11-21T05:15:54.784Z,22.17
2018-11-21T05:18:23.070Z,22.20
2018-11-21T05:20:51.348Z,19.60
2018-11-21T05:23:19.638Z,20.13
2018-11-21T05:25:47.933Z,20.13
2018-11-21T05:28:16.253Z,19.60
2018-11-21T05:30:44.488Z,21.87
2018-11-21T05:33:12.756Z,19.57
2018-11-21T05:35:41.016Z,20.77
2018-11-21T05:38:09.275Z,20.93
2018-11-21T05:40:37.592Z,20.43
2018-11-21T05:43:06.008Z,21.37
2018-11-21T05:45:34.244Z,21.60
2018-11-21T05:48:02.586Z,22.60
2018-11-21T05:50:30.897Z,21.00
2018-11-21T05:52:59.166Z,20.73
2018-11-21T05:55:27.453Z,19.20
2018-11-21T05:57:55.727Z,18.87
2018-11-21T06:00:24.000Z,20.80
2018-11-21T06:02:52.253Z,22.30
2018-11-21T06:05:20.619Z,20.80
2018-11-21T06:07:48.931Z,21.73
2018-11-21T06:10:17.202Z,22.50
2018-11-21T06:12:45.486Z,22.70
2018-11-21T06:15:13.728Z,22.90
2018-11-21T06:17:48.010Z,18.90
2018-11-21T06:20:12.951Z,22.80
2018-11-21T06:22:41.228Z,21.63
2018-11-21T06:25:10.622Z,23.90
2018-11-21T06:27:39.008Z,23.03
2018-11-21T06:30:12.495Z,22.97
2018-11-21T06:32:41.157Z,19.87
2018-11-21T06:35:10.621Z,21.50
2018-11-21T06:37:39.408Z,21.77
2018-11-21T06:40:10.511Z,21.83
2018-11-21T06:42:38.930Z,20.53
2018-11-21T06:45:08.570Z,21.60
2018-11-21T06:47:36.862Z,22.10
2018-11-21T06:50:05.502Z,20.93
2018-11-21T06:52:33.807Z,20.70
2018-11-21T06:55:02.069Z,21.10
2018-11-21T06:57:30.427Z,24.27
2018-11-21T06:59:58.725Z,20.53
2018-11-21T07:02:27.041Z,20.70
2018-11-21T07:04:55.392Z,21.77
2018-11-21T07:07:23.797Z,21.10
2018-11-21T07:09:52.113Z,20.20
2018-11-21T07:12:20.494Z,19.43
2018-11-21T07:14:49.344Z,19.50
2018-11-21T07:17:17.716Z,20.30
2018-11-21T07:19:45.953Z,19.10
2018-11-21T07:22:14.173Z,19.67
2018-11-21T07:24:42.385Z,18.87
2018-11-21T07:27:10.600Z,19.00
2018-11-21T07:29:38.804Z,20.63
2018-11-21T07:32:07.123Z,21.30
2018-11-21T07:34:35.357Z,20.43
2018-11-21T07:37:03.598Z,18.20
2018-11-21T07:39:31.807Z,19.67
2018-11-21T07:42:00.012Z,18.67
2018-11-21T07:44:28.218Z,20.13
2018-11-21T07:46:56.417Z,18.90
2018-11-21T07:49:24.640Z,19.47
2018-11-21T07:51:52.904Z,20.07
2018-11-21T07:54:21.179Z,18.57
2018-11-21T07:57:29.599Z,19.13
2018-11-21T08:00:43.447Z,18.47
2018-11-21T08:03:11.921Z,17.50
2018-11-21T08:05:44.442Z,17.93
2018-11-21T08:08:34.830Z,18.93
2018-11-21T08:11:13.199Z,18.30
2018-11-21T08:14:18.751Z,19.20
2018-11-21T08:17:24.300Z,18.83
2018-11-21T08:20:14.742Z,16.03
2018-11-21T08:22:58.222Z,19.93
2018-11-21T08:25:57.809Z,18.10
2018-11-21T08:28:29.910Z,17.83
2018-11-21T08:30:58.251Z,19.90
2018-11-21T08:33:26.723Z,21.10
2018-11-21T08:35:55.068Z,19.40
2018-11-21T08:38:23.374Z,21.23
2018-11-21T08:40:51.709Z,20.00
2018-11-21T08:43:20.025Z,19.73
2018-11-21T08:45:48.449Z,23.30
2018-11-21T08:48:17.690Z,20.57
2018-11-21T08:50:46.279Z,21.90
2018-11-21T08:53:14.596Z,20.57
2018-11-21T08:55:42.852Z,21.87
2018-11-21T08:58:11.123Z,22.90
2018-11-21T09:00:39.355Z,21.50
2018-11-21T09:03:08.141Z,21.00
2018-11-21T09:05:36.467Z,21.57
2018-11-21T09:08:06.005Z,22.37
2018-11-21T09:13:01.907Z,23.33
2018-11-21T09:15:30.197Z,24.30
2018-11-21T09:17:58.473Z,23.63
2018-11-21T09:20:26.750Z,20.43
2018-11-21T09:22:55.116Z,25.03
2018-11-21T09:25:23.474Z,22.27
2018-11-21T09:27:51.762Z,22.90
2018-11-21T09:30:21.305Z,21.80
2018-11-21T09:32:50.867Z,21.53
2018-11-21T09:35:19.686Z,20.83
2018-11-21T09:37:48.008Z,21.83
2018-11-21T09:40:25.168Z,23.80
2018-11-21T09:42:54.963Z,22.17
2018-11-21T09:45:23.889Z,20.87
2018-11-21T09:47:52.124Z,21.20
2018-11-21T09:50:23.459Z,21.40
2018-11-21T09:52:50.621Z,20.90
2018-11-21T09:55:18.877Z,20.10
2018-11-21T09:57:47.226Z,20.30
2018-11-21T10:00:59.078Z,17.73
2018-11-21T10:03:26.375Z,20.67
2018-11-21T10:06:03.641Z,19.70
2018-11-21T10:08:59.493Z,21.97
2018-11-21T10:11:28.296Z,20.00
2018-11-21T10:13:56.612Z,20.60
2018-11-21T10:16:27.647Z,20.87
2018-11-21T10:18:57.121Z,23.73
2018-11-21T10:21:26.927Z,21.40
2018-11-21T10:23:55.223Z,19.10
2018-11-21T10:26:23.576Z,22.67
2018-11-21T10:28:52.649Z,25.50
2018-11-21T10:31:20.900Z,27.73
2018-11-21T10:33:49.158Z,22.70
2018-11-21T10:36:17.442Z,23.30
2018-11-21T10:38:45.769Z,25.20
2018-11-21T10:41:16.759Z,25.27
2018-11-21T10:43:46.088Z,24.50
2018-11-21T10:46:59.893Z,27.53
2018-11-21T10:49:29.623Z,23.60
2018-11-21T10:51:59.404Z,24.23
2018-11-21T10:54:29.100Z,24.37
2018-11-21T10:56:58.905Z,25.00
2018-11-21T10:59:28.533Z,23.53
2018-11-21T11:02:15.592Z,23.97
2018-11-21T11:04:58.409Z,23.40
2018-11-21T11:07:45.375Z,22.17
2018-11-21T11:10:46.121Z,22.00
2018-11-21T11:13:35.342Z,21.53
2018-11-21T11:16:34.936Z,20.40
2018-11-21T11:19:21.000Z,24.90
2018-11-21T11:22:08.137Z,23.40
2018-11-21T11:24:56.902Z,23.93
2018-11-21T11:28:00.208Z,23.27
2018-11-21T11:30:46.727Z,22.30
2018-11-21T11:33:37.759Z,22.30
2018-11-21T11:36:33.517Z,24.90
2018-11-21T11:39:15.656Z,21.70
2018-11-21T11:42:03.685Z,22.50
2018-11-21T11:44:50.977Z,22.43
2018-11-21T11:47:48.309Z,21.90
2018-11-21T11:50:36.781Z,22.37
2018-11-21T11:53:31.228Z,26.20
2018-11-21T11:56:18.265Z,26.17
2018-11-21T11:59:05.068Z,25.00
2018-11-21T12:02:02.129Z,20.23
2018-11-21T12:04:45.567Z,26.47
2018-11-21T12:07:34.031Z,24.80
2018-11-21T12:10:21.057Z,24.20
2018-11-21T12:13:27.817Z,26.27
2018-11-21T12:16:07.397Z,26.70
2018-11-21T12:18:55.904Z,24.43
2018-11-21T12:22:00.084Z,24.80
2018-11-21T12:24:47.268Z,26.00
2018-11-21T12:27:26.831Z,22.60
2018-11-21T12:30:13.820Z,22.70
2018-11-21T12:33:17.379Z,23.70
2018-11-21T12:36:04.648Z,22.47
2018-11-21T12:38:54.817Z,26.30
2018-11-21T12:41:43.262Z,22.17
2018-11-21T12:44:34.506Z,24.17
2018-11-21T12:47:23.062Z,21.43
2018-11-21T12:50:11.634Z,22.43
2018-11-21T12:52:58.445Z,24.07
2018-11-21T12:55:45.780Z,24.73
2018-11-21T12:58:32.365Z,23.50
2018-11-21T13:01:19.499Z,22.10
2018-11-21T13:04:16.896Z,24.50
2018-11-21T13:07:07.975Z,27.53
2018-11-21T13:09:56.850Z,24.03
2018-11-21T13:12:43.637Z,25.13
2018-11-21T13:15:34.742Z,23.97
2018-11-21T13:18:22.067Z,27.07
2018-11-21T13:21:09.023Z,25.63
2018-11-21T13:23:58.510Z,25.60
2018-11-21T13:26:45.695Z,22.13
2018-11-21T13:29:37.062Z,26.23
2018-11-21T13:32:28.132Z,23.17
2018-11-21T13:35:23.220Z,24.63
2018-11-21T13:38:03.279Z,23.90
2018-11-21T13:40:50.299Z,22.93
2018-11-21T13:43:38.615Z,26.03
2018-11-21T13:46:25.643Z,26.63
2018-11-21T13:49:06.427Z,26.50
2018-11-21T13:52:06.691Z,26.70
2018-11-21T13:54:48.392Z,23.70
2018-11-21T13:57:20.002Z,24.33
2018-11-21T13:59:49.891Z,26.97
2018-11-21T14:02:19.609Z,25.10
2018-11-21T14:04:49.523Z,23.90
2018-11-21T14:07:19.428Z,24.70
2018-11-21T14:09:49.147Z,27.00
2018-11-21T14:12:19.681Z,25.70
2018-11-21T14:14:49.402Z,26.27
2018-11-21T14:17:19.196Z,25.93
2018-11-21T14:19:48.926Z,24.60
2018-11-21T14:22:18.865Z,24.20
2018-11-21T14:24:48.533Z,24.17
2018-11-21T14:27:18.316Z,24.70
2018-11-21T14:29:48.171Z,24.17
2018-11-21T14:32:18.141Z,24.83
2018-11-21T14:34:47.854Z,24.23
2018-11-21T14:37:20.495Z,30.97
2018-11-21T14:39:50.150Z,30.93
2018-11-21T14:42:19.797Z,26.67
2018-11-21T14:44:49.695Z,30.57
2018-11-21T14:47:19.313Z,29.27
2018-11-21T14:49:55.265Z,25.97
2018-11-21T14:52:24.970Z,23.67
2018-11-21T14:54:54.670Z,23.37
2018-11-21T14:57:24.446Z,25.30
2018-11-21T14:59:54.319Z,24.20
2018-11-21T15:02:24.270Z,25.10
2018-11-21T15:04:53.973Z,24.20
2018-11-21T15:07:25.585Z,25.13
2018-11-21T15:10:14.977Z,24.93
2018-11-21T15:12:55.725Z,24.10
2018-11-21T15:15:28.827Z,24.50
2018-11-21T15:17:58.814Z,24.17
2018-11-21T15:20:28.552Z,24.57
2018-11-21T15:22:58.520Z,23.43
2018-11-21T15:25:28.204Z,26.60
2018-11-21T15:27:58.051Z,22.03
2018-11-21T15:30:29.246Z,21.80
2018-11-21T15:32:58.979Z,23.10
2018-11-21T15:35:28.669Z,21.33
2018-11-21T15:37:58.472Z,22.23
2018-11-21T15:40:28.381Z,21.93
2018-11-21T15:42:58.324Z,21.93
2018-11-21T15:45:28.426Z,20.67
2018-11-21T15:48:00.272Z,19.43
2018-11-21T15:50:30.844Z,19.83
2018-11-21T15:53:00.525Z,20.10
2018-11-21T15:55:30.504Z,21.10
2018-11-21T15:58:00.355Z,19.30
2018-11-21T16:00:32.324Z,23.60
2018-11-21T16:03:06.479Z,21.80
2018-11-21T16:05:36.674Z,24.40
2018-11-21T16:08:06.608Z,25.50
2018-11-21T16:10:37.990Z,23.53
2018-11-21T16:13:08.461Z,22.47
2018-11-21T16:15:46.096Z,20.90
2018-11-21T16:18:16.361Z,22.30
2018-11-21T16:20:46.504Z,17.90
2018-11-21T16:23:16.389Z,17.47
2018-11-21T16:25:45.940Z,18.30
2018-11-21T16:28:15.616Z,19.10
2018-11-21T16:30:45.289Z,19.37
2018-11-21T16:33:15.054Z,19.40
2018-11-21T16:35:44.605Z,19.10
2018-11-21T16:38:14.189Z,18.27
2018-11-21T16:40:43.789Z,17.07
2018-11-21T16:43:13.571Z,18.50
2018-11-21T16:45:45.313Z,19.70
2018-11-21T16:48:14.909Z,19.40
2018-11-21T16:50:44.745Z,18.90
2018-11-21T16:53:14.476Z,21.13
2018-11-21T16:55:44.216Z,21.17
2018-11-21T16:58:13.920Z,20.27
2018-11-21T17:00:43.561Z,23.57
2018-11-21T17:03:13.277Z,25.80
2018-11-21T17:05:42.914Z,19.27
2018-11-21T17:08:12.381Z,18.23
2018-11-21T17:10:41.838Z,20.60
2018-11-21T17:13:11.542Z,23.60
2018-11-21T17:15:41.115Z,26.93
2018-11-21T17:18:10.755Z,22.13
2018-11-21T17:20:42.279Z,25.90
2018-11-21T17:23:11.801Z,22.17
2018-11-21T17:25:41.987Z,21.60
2018-11-21T17:28:11.800Z,18.50
2018-11-21T17:30:41.538Z,17.53
2018-11-21T17:33:11.203Z,21.13
2018-11-21T17:35:40.721Z,21.30
2018-11-21T17:38:10.311Z,22.77
2018-11-21T17:40:41.489Z,21.83
2018-11-21T17:43:11.051Z,22.30
2018-11-21T17:45:40.542Z,20.37
2018-11-21T17:48:10.180Z,20.90
2018-11-21T17:50:39.747Z,22.03
2018-11-21T17:53:09.659Z,22.33
2018-11-21T17:55:39.952Z,22.63
2018-11-21T17:58:09.376Z,19.97
2018-11-21T18:00:38.918Z,20.40
2018-11-21T18:03:10.617Z,19.77
2018-11-21T18:05:41.426Z,21.60
2018-11-21T18:08:10.947Z,19.13
2018-11-21T18:10:41.817Z,20.80
2018-11-21T18:13:11.500Z,18.90
2018-11-21T18:15:41.028Z,21.10
2018-11-21T18:18:10.563Z,21.47
2018-11-21T18:20:39.965Z,18.53
2018-11-21T18:23:09.517Z,19.50
2018-11-21T18:25:42.021Z,22.17
2018-11-21T18:28:11.551Z,23.33
2018-11-21T18:30:41.819Z,19.10
2018-11-21T18:33:12.012Z,18.60
2018-11-21T18:35:40.812Z,19.20
2018-11-21T18:38:10.399Z,18.30
2018-11-21T18:40:39.904Z,19.70
2018-11-21T18:43:12.305Z,20.10
2018-11-21T18:45:43.599Z,21.10
2018-11-21T18:48:13.736Z,19.57
2018-11-21T18:50:43.566Z,18.93
2018-11-21T18:53:13.788Z,18.90
2018-11-21T18:56:05.828Z,20.37
2018-11-21T18:58:42.696Z,18.13
2018-11-21T19:01:13.020Z,17.50
2018-11-21T19:03:42.580Z,19.30
2018-11-21T19:06:12.201Z,19.47
2018-11-21T19:08:41.729Z,19.67
2018-11-21T19:11:11.239Z,20.70
2018-11-21T19:13:40.692Z,19.63
2018-11-21T19:16:10.307Z,19.30
2018-11-21T19:18:39.828Z,16.70
2018-11-21T19:21:09.479Z,16.13
2018-11-21T19:23:38.893Z,18.30
2018-11-21T19:26:08.503Z,18.00
2018-11-21T19:28:38.052Z,18.20
2018-11-21T19:31:07.652Z,19.03
2018-11-21T19:33:37.228Z,17.97
2018-11-21T19:36:06.860Z,15.70
2018-11-21T19:38:36.426Z,16.73
2018-11-21T19:41:06.441Z,16.30
2018-11-21T19:43:36.000Z,15.53
2018-11-21T19:46:06.005Z,15.27
2018-11-21T19:48:35.618Z,16.93
2018-11-21T19:51:05.352Z,15.30
2018-11-21T19:53:34.940Z,15.17
2018-11-21T19:56:04.593Z,14.80
2018-11-21T19:58:34.175Z,14.80
2018-11-21T20:01:03.887Z,14.60
2018-11-21T20:03:33.444Z,15.53
2018-11-21T20:06:03.093Z,13.50
2018-11-21T20:08:32.641Z,14.33
2018-11-21T20:11:02.192Z,13.70
2018-11-21T20:13:31.912Z,16.27
2018-11-21T20:16:01.580Z,14.70
2018-11-21T20:18:31.136Z,13.50
2018-11-21T20:21:00.813Z,14.27
2018-11-21T20:23:30.260Z,14.63
2018-11-21T20:25:59.923Z,14.00
2018-11-21T20:28:29.911Z,13.70
2018-11-21T20:30:59.538Z,13.60
2018-11-21T20:33:29.192Z,13.73
2018-11-21T20:35:58.835Z,13.23
2018-11-21T20:38:28.361Z,15.53
2018-11-21T20:40:57.904Z,13.17
2018-11-21T20:43:27.577Z,12.97
2018-11-21T20:45:57.194Z,15.07
2018-11-21T20:48:26.653Z,14.87
2018-11-21T20:50:56.297Z,13.30
2018-11-21T20:53:25.841Z,13.20
2018-11-21T20:55:55.464Z,13.50
2018-11-21T20:58:25.021Z,13.23
2018-11-21T21:00:54.656Z,13.47
2018-11-21T21:03:24.232Z,12.77
2018-11-21T21:05:54.052Z,12.90
2018-11-21T21:08:23.676Z,19.90
2018-11-21T21:10:53.216Z,17.97
2018-11-21T21:13:22.699Z,15.13
2018-11-21T21:15:52.316Z,13.23
2018-11-21T21:18:21.956Z,13.80
2018-11-21T21:20:51.611Z,13.23
2018-11-21T21:23:21.166Z,12.90
2018-11-21T21:25:50.773Z,13.87
2018-11-21T21:28:20.387Z,15.07
2018-11-21T21:30:50.012Z,14.07
2018-11-21T21:33:19.620Z,14.20
2018-11-21T21:35:49.412Z,15.40
2018-11-21T21:38:19.063Z,16.20
2018-11-21T21:40:48.708Z,16.67
2018-11-21T21:43:18.385Z,14.90
2018-11-21T21:45:47.998Z,14.50
2018-11-21T21:48:17.545Z,14.97
2018-11-21T21:50:47.180Z,12.43
2018-11-21T21:53:16.839Z,13.17
2018-11-21T21:55:46.371Z,12.10
2018-11-21T21:58:16.016Z,13.57
2018-11-21T22:00:45.527Z,11.73
2018-11-21T22:03:15.196Z,12.30
2018-11-21T22:05:44.827Z,12.40
2018-11-21T22:08:14.379Z,13.00
2018-11-21T22:10:43.945Z,13.23
2018-11-21T22:13:13.617Z,13.40
2018-11-21T22:15:43.452Z,14.37
2018-11-21T22:18:14.320Z,13.00
2018-11-21T22:20:43.863Z,17.57
2018-11-21T22:23:13.328Z,34.70
2018-11-21T22:25:42.883Z,15.97
2018-11-21T22:28:12.513Z,15.00
2018-11-21T22:30:42.135Z,13.63
2018-11-21T22:33:11.687Z,16.80
2018-11-21T22:35:41.739Z,14.73
2018-11-21T22:38:11.265Z,15.37
2018-11-21T22:40:40.904Z,25.37
2018-11-21T22:43:10.489Z,19.10
2018-11-21T22:45:40.160Z,19.03
2018-11-21T22:48:09.743Z,19.67
2018-11-21T22:50:39.360Z,30.37
2018-11-21T22:53:09.116Z,20.17
2018-11-21T22:55:38.711Z,18.63
2018-11-21T22:58:08.356Z,16.00
2018-11-21T23:00:42.467Z,18.00
2018-11-21T23:03:12.991Z,16.70
2018-11-21T23:05:43.650Z,20.73
2018-11-21T23:08:12.351Z,16.47
2018-11-21T23:10:42.201Z,18.30
2018-11-21T23:13:11.926Z,17.67
2018-11-21T23:15:41.964Z,15.37
2018-11-21T23:18:11.540Z,15.70
2018-11-21T23:20:41.183Z,14.40
2018-11-21T23:23:10.634Z,16.27
2018-11-21T23:25:40.187Z,16.00
2018-11-21T23:28:09.734Z,19.53
2018-11-21T23:30:39.228Z,14.87
2018-11-21T23:33:08.859Z,13.93
2018-11-21T23:35:38.500Z,18.33
2018-11-21T23:38:08.132Z,21.47
2018-11-21T23:40:37.759Z,20.10
2018-11-21T23:43:07.556Z,16.63
2018-11-21T23:45:37.143Z,14.87
2018-11-21T23:48:06.680Z,13.80
2018-11-21T23:50:36.224Z,15.20
2018-11-21T23:53:05.931Z,14.53
2018-11-21T23:55:35.564Z,14.70
2018-11-21T23:58:05.263Z,18.60
